createdAt,value
2022-10-27T00:00:40.932Z,220.85
2022-10-27T00:03:13.560Z,213.10
2022-10-27T00:05:42.066Z,206.10
2022-10-27T00:08:08.592Z,203.73
2022-10-27T00:10:35.122Z,226.73
2022-10-27T00:13:01.595Z,231.98
2022-10-27T00:15:28.063Z,205.38
2022-10-27T00:17:54.538Z,220.88
2022-10-27T00:20:21.059Z,211.75
2022-10-27T00:22:47.710Z,211.52
2022-10-27T00:25:14.449Z,220.45
2022-10-27T00:27:40.897Z,218.07
2022-10-27T00:30:08.049Z,223.18
2022-10-27T00:32:34.612Z,227.38
2022-10-27T00:35:01.098Z,223.13
2022-10-27T00:37:28.910Z,207.95
2022-10-27T00:39:55.470Z,219.73
2022-10-27T00:42:21.924Z,230.60
2022-10-27T00:44:48.664Z,216.48
2022-10-27T00:47:24.555Z,220.05
2022-10-27T00:49:54.938Z,225.82
2022-10-27T00:52:34.064Z,211.93
2022-10-27T00:55:18.659Z,240.35
2022-10-27T00:57:48.705Z,203.20
2022-10-27T01:00:15.881Z,206.70
2022-10-27T01:02:42.529Z,199.60
2022-10-27T01:05:28.494Z,204.32
2022-10-27T01:07:57.785Z,200.88
2022-10-27T01:10:25.242Z,214.82
2022-10-27T01:12:52.850Z,189.57
2022-10-27T01:15:22.892Z,192.45
2022-10-27T01:18:08.681Z,183.18
2022-10-27T01:21:14.037Z,186.50
2022-10-27T01:23:52.491Z,214.45
2022-10-27T01:26:30.974Z,207.25
2022-10-27T01:29:28.376Z,198.13
2022-10-27T01:32:05.500Z,199.18
2022-10-27T01:34:47.581Z,185.55
2022-10-27T01:37:30.272Z,192.68
2022-10-27T01:40:02.103Z,194.52
2022-10-27T01:42:36.206Z,186.95
2022-10-27T01:45:03.993Z,204.95
2022-10-27T01:47:32.036Z,205.40
2022-10-27T01:49:58.470Z,196.45
2022-10-27T01:52:37.086Z,196.48
2022-10-27T01:55:04.371Z,193.25
2022-10-27T01:57:47.527Z,188.40
2022-10-27T02:00:14.331Z,180.20
2022-10-27T02:02:46.578Z,194.93
2022-10-27T02:05:26.559Z,185.43
2022-10-27T02:08:34.497Z,177.98
2022-10-27T02:11:06.965Z,192.90
2022-10-27T02:13:36.827Z,183.43
2022-10-27T02:16:06.837Z,182.05
2022-10-27T02:18:38.578Z,187.90
2022-10-27T02:21:08.762Z,181.38
2022-10-27T02:23:36.408Z,189.95
2022-10-27T02:26:19.262Z,171.70
2022-10-27T02:29:03.457Z,196.40
2022-10-27T02:31:36.494Z,184.65
2022-10-27T02:34:04.527Z,199.95
2022-10-27T02:36:31.721Z,180.65
2022-10-27T02:38:58.241Z,166.15
2022-10-27T02:41:24.944Z,192.23
2022-10-27T02:43:51.422Z,197.43
2022-10-27T02:46:17.972Z,173.88
2022-10-27T02:48:44.438Z,188.15
2022-10-27T02:51:11.749Z,191.25
2022-10-27T02:53:38.206Z,176.88
2022-10-27T02:56:04.992Z,185.27
2022-10-27T02:58:31.535Z,190.00
2022-10-27T03:00:58.083Z,178.10
2022-10-27T03:03:24.671Z,182.70
2022-10-27T03:05:51.769Z,188.70
2022-10-27T03:08:18.500Z,206.68
2022-10-27T03:10:45.328Z,236.02
2022-10-27T03:13:12.129Z,209.65
2022-10-27T03:15:38.736Z,207.38
2022-10-27T03:18:05.322Z,191.45
2022-10-27T03:20:31.802Z,212.05
2022-10-27T03:22:58.289Z,197.48
2022-10-27T03:25:24.790Z,195.07
2022-10-27T03:27:51.243Z,195.80
2022-10-27T03:30:17.834Z,207.20
2022-10-27T03:32:52.249Z,205.70
2022-10-27T03:35:20.917Z,213.18
2022-10-27T03:37:55.549Z,195.00
2022-10-27T03:40:22.024Z,183.68
2022-10-27T03:42:48.686Z,180.25
2022-10-27T03:45:15.456Z,156.90
2022-10-27T03:47:41.912Z,184.95
2022-10-27T03:50:08.729Z,181.45
2022-10-27T03:52:35.188Z,191.98
2022-10-27T03:55:01.636Z,164.68
2022-10-27T03:57:28.102Z,187.05
2022-10-27T03:59:54.549Z,204.23
2022-10-27T04:02:21.152Z,202.80
2022-10-27T04:04:48.844Z,215.93
2022-10-27T04:07:15.450Z,204.00
2022-10-27T04:09:41.952Z,207.63
2022-10-27T04:12:08.506Z,216.13
2022-10-27T04:14:35.064Z,219.35
2022-10-27T04:17:01.564Z,210.90
2022-10-27T04:19:28.026Z,205.20
2022-10-27T04:21:54.518Z,215.30
2022-10-27T04:24:21.000Z,213.60
2022-10-27T04:26:47.505Z,206.82
2022-10-27T04:29:13.960Z,190.98
2022-10-27T04:31:40.421Z,182.85
2022-10-27T04:34:06.989Z,193.80
2022-10-27T04:36:33.578Z,176.98
2022-10-27T04:39:00.095Z,184.45
2022-10-27T04:41:26.580Z,168.52
2022-10-27T04:43:53.104Z,179.82
2022-10-27T04:46:19.583Z,194.20
2022-10-27T04:48:46.161Z,183.70
2022-10-27T04:51:12.708Z,214.70
2022-10-27T04:53:39.225Z,205.80
2022-10-27T04:56:06.054Z,193.25
2022-10-27T04:58:32.542Z,195.15
2022-10-27T05:00:59.070Z,185.55
2022-10-27T05:03:25.553Z,212.98
2022-10-27T05:05:51.992Z,195.07
2022-10-27T05:08:18.471Z,203.40
2022-10-27T05:10:46.558Z,163.80
2022-10-27T05:13:13.018Z,161.18
2022-10-27T05:15:39.581Z,175.90
2022-10-27T05:18:08.131Z,166.80
2022-10-27T05:20:37.089Z,165.57
2022-10-27T05:23:03.703Z,161.30
2022-10-27T05:25:30.350Z,165.60
2022-10-27T05:28:07.864Z,153.35
2022-10-27T05:30:34.397Z,157.70
2022-10-27T05:33:01.204Z,145.90
2022-10-27T05:35:27.805Z,154.10
2022-10-27T05:37:54.532Z,146.30
2022-10-27T05:40:21.620Z,172.38
2022-10-27T05:42:53.527Z,171.43
2022-10-27T05:45:22.340Z,182.80
2022-10-27T05:47:49.544Z,209.85
2022-10-27T05:50:16.172Z,219.60
2022-10-27T05:52:45.901Z,190.85
2022-10-27T05:55:12.365Z,185.10
2022-10-27T05:57:38.867Z,173.85
2022-10-27T06:00:05.928Z,219.07
2022-10-27T06:02:32.518Z,203.15
2022-10-27T06:04:59.074Z,184.00
2022-10-27T06:07:25.567Z,215.50
2022-10-27T06:09:52.053Z,193.20
2022-10-27T06:12:19.103Z,247.73
2022-10-27T06:14:45.701Z,232.07
2022-10-27T06:17:12.227Z,230.20
2022-10-27T06:19:38.746Z,222.35
2022-10-27T06:22:05.323Z,214.38
2022-10-27T06:24:31.941Z,254.13
2022-10-27T06:26:58.474Z,226.93
2022-10-27T06:29:24.926Z,236.73
2022-10-27T06:31:51.409Z,247.98
2022-10-27T06:34:17.890Z,222.80
2022-10-27T06:36:44.354Z,235.35
2022-10-27T06:39:10.855Z,222.45
2022-10-27T06:41:37.314Z,200.80
2022-10-27T06:44:03.860Z,144.75
2022-10-27T06:46:30.422Z,221.70
2022-10-27T06:48:56.913Z,229.23
2022-10-27T06:51:23.578Z,194.07
2022-10-27T06:53:50.061Z,200.38
2022-10-27T06:56:18.027Z,212.18
2022-10-27T06:58:44.844Z,224.57
2022-10-27T07:01:11.526Z,219.73
2022-10-27T07:03:38.135Z,208.18
2022-10-27T07:06:05.393Z,238.23
2022-10-27T07:08:31.940Z,200.10
2022-10-27T07:10:58.584Z,195.32
2022-10-27T07:13:25.105Z,230.77
2022-10-27T07:15:51.570Z,223.10
2022-10-27T07:18:18.201Z,222.02
2022-10-27T07:20:49.556Z,216.68
2022-10-27T07:23:16.090Z,214.93
2022-10-27T07:25:42.665Z,235.15
2022-10-27T07:28:09.447Z,208.88
2022-10-27T07:30:39.250Z,228.00
2022-10-27T07:33:06.589Z,235.70
2022-10-27T07:35:33.778Z,226.30
2022-10-27T07:38:00.374Z,170.38
2022-10-27T07:40:30.117Z,231.65
2022-10-27T07:43:05.067Z,224.27
2022-10-27T07:45:33.761Z,209.75
2022-10-27T07:48:00.225Z,226.93
2022-10-27T07:50:34.006Z,232.75
2022-10-27T07:53:01.375Z,209.40
2022-10-27T07:55:30.103Z,195.65
2022-10-27T07:58:01.711Z,256.20
2022-10-27T08:00:29.285Z,209.40
2022-10-27T08:02:56.090Z,201.10
2022-10-27T08:05:22.771Z,196.15
2022-10-27T08:07:49.510Z,247.20
2022-10-27T08:10:16.185Z,258.55
2022-10-27T08:12:44.542Z,200.82
2022-10-27T08:15:12.131Z,226.68
2022-10-27T08:17:40.066Z,230.88
2022-10-27T08:20:08.291Z,211.93
2022-10-27T08:22:34.998Z,258.95
2022-10-27T08:25:03.647Z,222.73
2022-10-27T08:27:33.068Z,230.43
2022-10-27T08:29:59.739Z,224.90
2022-10-27T08:32:26.248Z,230.30
2022-10-27T08:34:52.828Z,245.63
2022-10-27T08:37:19.414Z,229.70
2022-10-27T08:39:46.042Z,325.05
2022-10-27T08:42:14.393Z,255.98
2022-10-27T08:45:02.683Z,253.38
2022-10-27T08:47:29.256Z,222.80
2022-10-27T08:50:03.478Z,252.75
2022-10-27T08:52:49.583Z,234.60
2022-10-27T08:55:16.224Z,217.30
2022-10-27T08:57:50.880Z,200.93
2022-10-27T09:00:17.812Z,241.43
2022-10-27T09:03:12.188Z,240.73
2022-10-27T09:05:53.653Z,227.30
2022-10-27T09:08:31.827Z,164.45
2022-10-27T09:11:16.815Z,226.25
2022-10-27T09:14:16.893Z,215.80
2022-10-27T09:16:51.269Z,253.63
2022-10-27T09:19:40.083Z,288.63
2022-10-27T09:22:15.095Z,249.93
2022-10-27T09:24:41.578Z,77.97
2022-10-27T09:27:13.533Z,71.28
2022-10-27T09:29:41.425Z,62.30
2022-10-27T09:32:08.021Z,121.95
2022-10-27T09:34:58.367Z,167.90
2022-10-27T09:37:27.868Z,47.10
2022-10-27T09:39:54.689Z,42.47
2022-10-27T09:42:22.075Z,118.20
2022-10-27T09:44:54.891Z,145.95
2022-10-27T09:49:56.606Z,71.00
2022-10-27T09:52:33.175Z,113.35
2022-10-27T09:54:59.783Z,107.15
2022-10-27T09:57:32.245Z,87.82
2022-10-27T10:00:06.481Z,88.80
2022-10-27T10:02:36.753Z,79.85
2022-10-27T10:05:19.590Z,79.93
2022-10-27T10:07:46.956Z,77.75
2022-10-27T10:10:30.014Z,82.10
2022-10-27T10:13:03.339Z,53.75
2022-10-27T10:15:33.232Z,34.97
2022-10-27T10:18:01.758Z,40.15
2022-10-27T10:20:43.166Z,114.15
2022-10-27T10:23:22.530Z,14.88
2022-10-27T10:25:51.003Z,93.53
2022-10-27T10:28:25.298Z,148.98
2022-10-27T10:30:54.546Z,78.18
2022-10-27T10:33:24.346Z,73.03
2022-10-27T10:35:52.140Z,98.78
2022-10-27T10:38:24.680Z,128.07
2022-10-27T10:41:14.012Z,158.20
2022-10-27T10:43:40.921Z,107.72
2022-10-27T10:46:20.872Z,118.72
2022-10-27T10:48:58.224Z,70.45
2022-10-27T10:51:31.818Z,34.15
2022-10-27T10:54:06.193Z,53.03
2022-10-27T10:56:37.921Z,24.23
2022-10-27T10:59:15.796Z,36.35
2022-10-27T11:01:55.652Z,28.08
2022-10-27T11:04:26.476Z,98.07
2022-10-27T11:07:15.552Z,47.60
2022-10-27T11:10:16.145Z,18.45
2022-10-27T11:12:56.185Z,33.35
2022-10-27T11:15:43.342Z,13.40
2022-10-27T11:18:16.988Z,4.85
2022-10-27T11:20:47.175Z,31.08
2022-10-27T11:23:41.071Z,28.77
2022-10-27T11:26:08.920Z,7.03
2022-10-27T11:28:49.951Z,15.82
2022-10-27T11:31:46.315Z,8.68
2022-10-27T11:34:24.526Z,12.17
2022-10-27T11:37:01.932Z,16.55
2022-10-27T11:39:31.241Z,7.63
2022-10-27T11:42:11.348Z,38.35
2022-10-27T11:44:40.697Z,18.63
2022-10-27T11:47:07.100Z,37.33
2022-10-27T11:49:43.988Z,32.17
2022-10-27T11:52:20.984Z,12.27
2022-10-27T11:54:48.392Z,30.80
2022-10-27T11:57:51.471Z,10.00
2022-10-27T12:00:23.923Z,6.60
2022-10-27T12:03:06.279Z,15.30
2022-10-27T12:05:53.301Z,10.05
2022-10-27T12:11:19.857Z,7.10
2022-10-27T12:14:12.515Z,5.97
2022-10-27T12:16:44.979Z,7.85
2022-10-27T12:19:19.250Z,12.40
2022-10-27T12:22:09.199Z,20.92
2022-10-27T12:24:38.129Z,32.15
2022-10-27T12:27:29.229Z,17.63
2022-10-27T12:30:07.008Z,16.92
2022-10-27T12:32:36.814Z,28.17
2022-10-27T12:35:12.370Z,6.07
2022-10-27T12:38:03.414Z,29.83
2022-10-27T12:40:43.603Z,16.65
2022-10-27T12:43:32.609Z,29.88
2022-10-27T12:46:19.661Z,14.77
2022-10-27T12:49:09.953Z,11.85
2022-10-27T12:51:49.847Z,5.18
2022-10-27T12:54:33.234Z,32.13
2022-10-27T12:57:27.842Z,11.70
2022-10-27T13:00:03.799Z,10.05
2022-10-27T13:02:38.277Z,20.75
2022-10-27T13:05:26.763Z,14.00
2022-10-27T13:08:12.382Z,20.23
2022-10-27T13:10:47.912Z,12.15
2022-10-27T13:13:47.510Z,19.73
2022-10-27T13:16:29.150Z,19.58
2022-10-27T13:19:10.833Z,25.80
2022-10-27T13:22:04.035Z,44.88
2022-10-27T13:25:02.444Z,28.70
2022-10-27T13:27:33.439Z,27.00
2022-10-27T13:30:05.326Z,19.40
2022-10-27T13:32:53.406Z,41.33
2022-10-27T13:35:20.713Z,18.60
2022-10-27T13:37:56.315Z,28.52
2022-10-27T13:40:22.928Z,16.83
2022-10-27T13:42:54.835Z,18.20
2022-10-27T13:45:27.433Z,21.48
2022-10-27T13:48:16.915Z,10.00
2022-10-27T13:50:46.026Z,30.67
2022-10-27T13:53:15.426Z,29.08
2022-10-27T13:55:44.774Z,37.85
2022-10-27T13:58:20.430Z,8.38
2022-10-27T14:01:14.770Z,26.42
2022-10-27T14:03:57.972Z,17.52
2022-10-27T14:06:37.712Z,43.28
2022-10-27T14:09:25.497Z,74.63
2022-10-27T14:11:54.519Z,16.88
2022-10-27T14:14:29.637Z,54.92
2022-10-27T14:17:00.093Z,38.05
2022-10-27T14:19:30.382Z,19.08
2022-10-27T14:21:57.535Z,42.85
2022-10-27T14:24:42.990Z,57.47
2022-10-27T14:27:18.406Z,27.80
2022-10-27T14:29:44.908Z,28.13
2022-10-27T14:32:21.485Z,30.48
2022-10-27T14:34:49.349Z,30.40
2022-10-27T14:37:20.722Z,23.13
2022-10-27T14:39:51.444Z,17.40
2022-10-27T14:42:28.194Z,19.60
2022-10-27T14:45:12.267Z,13.70
2022-10-27T14:47:43.568Z,27.98
2022-10-27T14:50:34.617Z,19.25
2022-10-27T14:53:03.078Z,15.25
2022-10-27T14:55:38.451Z,35.00
2022-10-27T14:58:06.654Z,10.87
2022-10-27T15:00:37.833Z,52.05
2022-10-27T15:03:07.424Z,45.35
2022-10-27T15:05:43.045Z,71.18
2022-10-27T15:08:21.667Z,55.72
2022-10-27T15:10:52.011Z,47.63
2022-10-27T15:13:23.916Z,43.38
2022-10-27T15:15:53.782Z,23.48
2022-10-27T15:18:26.144Z,9.88
2022-10-27T15:20:53.499Z,26.38
2022-10-27T15:23:21.286Z,34.17
2022-10-27T15:25:56.735Z,25.10
2022-10-27T15:28:28.957Z,21.98
2022-10-27T15:30:55.670Z,45.22
2022-10-27T15:33:28.261Z,159.38
2022-10-27T15:35:55.482Z,53.30
2022-10-27T15:38:29.881Z,33.30
2022-10-27T15:41:21.817Z,43.72
2022-10-27T15:43:52.266Z,21.77
2022-10-27T15:46:35.679Z,34.00
2022-10-27T15:49:02.104Z,51.72
2022-10-27T15:51:47.339Z,46.78
2022-10-27T15:54:32.340Z,55.90
2022-10-27T15:56:59.739Z,50.13
2022-10-27T15:59:29.147Z,33.83
2022-10-27T16:02:01.362Z,44.10
2022-10-27T16:04:30.800Z,63.20
2022-10-27T16:07:12.561Z,34.10
2022-10-27T16:09:42.824Z,38.25
2022-10-27T16:12:18.459Z,50.60
2022-10-27T16:14:55.481Z,42.83
2022-10-27T16:17:26.086Z,60.28
2022-10-27T16:19:52.694Z,47.85
2022-10-27T16:22:21.597Z,120.63
2022-10-27T16:24:48.692Z,78.43
2022-10-27T16:27:25.162Z,67.10
2022-10-27T16:30:03.148Z,94.72
2022-10-27T16:32:30.946Z,100.72
2022-10-27T16:34:57.866Z,109.63
2022-10-27T16:37:30.548Z,76.05
2022-10-27T16:39:57.055Z,110.45
2022-10-27T16:42:24.987Z,126.72
2022-10-27T16:44:51.777Z,114.97
2022-10-27T16:47:20.815Z,123.68
2022-10-27T16:49:48.137Z,122.70
2022-10-27T16:52:14.907Z,162.90
2022-10-27T16:54:41.607Z,167.10
2022-10-27T16:57:09.673Z,158.25
2022-10-27T16:59:36.249Z,169.50
2022-10-27T17:02:03.180Z,152.65
2022-10-27T17:04:29.897Z,191.13
2022-10-27T17:06:56.496Z,185.50
2022-10-27T17:09:23.029Z,183.68
2022-10-27T17:11:50.637Z,205.40
2022-10-27T17:14:17.231Z,233.93
2022-10-27T17:16:43.768Z,225.80
2022-10-27T17:19:10.322Z,226.57
2022-10-27T17:21:36.929Z,231.77
2022-10-27T17:24:03.798Z,225.15
2022-10-27T17:26:32.333Z,256.35
2022-10-27T17:28:59.743Z,233.35
2022-10-27T17:31:27.126Z,225.05
2022-10-27T17:33:59.504Z,225.88
2022-10-27T17:36:27.126Z,230.57
2022-10-27T17:38:53.747Z,218.13
2022-10-27T17:41:20.912Z,208.88
2022-10-27T17:43:47.364Z,197.18
2022-10-27T17:46:16.525Z,220.27
2022-10-27T17:48:44.575Z,193.73
2022-10-27T17:51:13.812Z,229.48
2022-10-27T17:53:41.352Z,203.68
2022-10-27T17:56:10.553Z,212.25
2022-10-27T17:58:38.286Z,215.32
2022-10-27T18:01:06.586Z,198.10
2022-10-27T18:03:34.114Z,214.18
2022-10-27T18:06:01.627Z,171.82
2022-10-27T18:08:29.995Z,174.75
2022-10-27T18:11:18.229Z,212.55
2022-10-27T18:13:49.148Z,165.55
2022-10-27T18:16:24.299Z,187.10
2022-10-27T18:18:53.209Z,192.68
2022-10-27T18:21:20.386Z,210.07
2022-10-27T18:23:52.002Z,162.68
2022-10-27T18:26:18.748Z,215.70
2022-10-27T18:28:46.434Z,172.63
2022-10-27T18:31:14.569Z,160.98
2022-10-27T18:33:47.181Z,159.50
2022-10-27T18:36:23.751Z,181.05
2022-10-27T18:39:00.707Z,181.05
